Terminal Aerodrome Forecast
Issued by NWS Spokane, WA

Home | Current Version | Previous Version | Text Only | Print | Product List | Glossary On
Versions: 1 2 3 4 5 6 7 8 9 10 11 12 13 14 15 16 17 18 19 20
000
FTUS46 KOTX 260701 AAA
TAFEAT
TAF AMD
KEAT 260701Z 2607/2706 25026G36KT P6SM VCSH SCT030 BKN100
     FM261400 28015KT P6SM FEW100 SCT150
     FM261900 29015G22KT P6SM FEW150
     FM270100 30011KT P6SM FEW200=

USA.gov is the U.S. government's official web portal to all federal, state and local government web resources and services.